sensor_id;sensor_type;location;lat;lon;timestamp;P1;durP1;ratioP1;P2;durP2;ratioP2
36745;SDS011;22715;52.182;21.206;2022-09-09T00:25:19;7.20;;;4.30;;
36745;SDS011;22715;52.182;21.206;2022-09-09T00:27:51;6.90;;;4.38;;
36745;SDS011;22715;52.182;21.206;2022-09-09T00:33:11;9.25;;;5.63;;
36745;SDS011;22715;52.182;21.206;2022-09-09T00:35:44;9.30;;;5.05;;
36745;SDS011;22715;52.182;21.206;2022-09-09T00:38:18;8.88;;;5.63;;
36745;SDS011;22715;52.182;21.206;2022-09-09T00:40:52;7.15;;;4.35;;
36745;SDS011;22715;52.182;21.206;2022-09-09T00:54:34;10.00;;;5.80;;
36745;SDS011;22715;52.182;21.206;2022-09-09T00:56:43;6.65;;;4.53;;
36745;SDS011;22715;52.182;21.206;2022-09-09T00:59:28;7.03;;;5.25;;
36745;SDS011;22715;52.182;21.206;2022-09-09T01:07:36;9.48;;;6.57;;
36745;SDS011;22715;52.182;21.206;2022-09-09T02:43:03;11.93;;;8.05;;
36745;SDS011;22715;52.182;21.206;2022-09-09T02:45:36;13.10;;;7.53;;
36745;SDS011;22715;52.182;21.206;2022-09-09T02:51:07;12.55;;;7.45;;
36745;SDS011;22715;52.182;21.206;2022-09-09T02:53:39;13.30;;;7.93;;
36745;SDS011;22715;52.182;21.206;2022-09-09T02:56:11;10.70;;;6.97;;
36745;SDS011;22715;52.182;21.206;2022-09-09T03:01:41;13.50;;;8.35;;
36745;SDS011;22715;52.182;21.206;2022-09-09T03:04:06;9.82;;;7.05;;
36745;SDS011;22715;52.182;21.206;2022-09-09T03:06:32;13.95;;;7.97;;
36745;SDS011;22715;52.182;21.206;2022-09-09T03:08:57;11.85;;;7.47;;
36745;SDS011;22715;52.182;21.206;2022-09-09T03:11:26;9.48;;;7.30;;
36745;SDS011;22715;52.182;21.206;2022-09-09T03:13:52;12.77;;;8.25;;
36745;SDS011;22715;52.182;21.206;2022-09-09T03:16:18;10.50;;;6.85;;
36745;SDS011;22715;52.182;21.206;2022-09-09T03:23:54;11.32;;;7.53;;
36745;SDS011;22715;52.182;21.206;2022-09-09T03:39:36;8.10;;;6.60;;
36745;SDS011;22715;52.182;21.206;2022-09-09T03:42:03;9.65;;;5.93;;
36745;SDS011;22715;52.182;21.206;2022-09-09T03:44:31;10.13;;;6.97;;
36745;SDS011;22715;52.182;21.206;2022-09-09T03:46:57;7.55;;;6.22;;
36745;SDS011;22715;52.182;21.206;2022-09-09T03:49:25;7.45;;;6.22;;
36745;SDS011;22715;52.182;21.206;2022-09-09T03:51:53;6.32;;;5.57;;
36745;SDS011;22715;52.182;21.206;2022-09-09T03:54:23;11.30;;;6.77;;
36745;SDS011;22715;52.182;21.206;2022-09-09T03:56:49;8.95;;;6.05;;
36745;SDS011;22715;52.182;21.206;2022-09-09T03:59:14;8.25;;;5.55;;
36745;SDS011;22715;52.182;21.206;2022-09-09T04:01:44;6.80;;;4.60;;
36745;SDS011;22715;52.182;21.206;2022-09-09T04:04:10;10.68;;;5.38;;
36745;SDS011;22715;52.182;21.206;2022-09-09T04:09:10;7.50;;;5.28;;
36745;SDS011;22715;52.182;21.206;2022-09-09T04:11:44;8.23;;;5.00;;
36745;SDS011;22715;52.182;21.206;2022-09-09T04:14:10;8.20;;;6.07;;
36745;SDS011;22715;52.182;21.206;2022-09-09T04:16:39;7.55;;;5.85;;
36745;SDS011;22715;52.182;21.206;2022-09-09T04:19:08;8.35;;;5.38;;
36745;SDS011;22715;52.182;21.206;2022-09-09T04:21:33;9.63;;;6.03;;
36745;SDS011;22715;52.182;21.206;2022-09-09T04:24:00;5.38;;;4.15;;
36745;SDS011;22715;52.182;21.206;2022-09-09T04:26:27;7.13;;;4.78;;
36745;SDS011;22715;52.182;21.206;2022-09-09T04:28:55;11.18;;;4.88;;
36745;SDS011;22715;52.182;21.206;2022-09-09T04:31:24;8.55;;;4.35;;
36745;SDS011;22715;52.182;21.206;2022-09-09T04:33:51;6.57;;;5.57;;
36745;SDS011;22715;52.182;21.206;2022-09-09T04:36:18;6.03;;;4.32;;
36745;SDS011;22715;52.182;21.206;2022-09-09T04:38:50;7.38;;;5.50;;
36745;SDS011;22715;52.182;21.206;2022-09-09T04:41:18;7.88;;;3.88;;
36745;SDS011;22715;52.182;21.206;2022-09-09T04:46:23;7.22;;;4.68;;
36745;SDS011;22715;52.182;21.206;2022-09-09T04:48:56;7.28;;;4.93;;
36745;SDS011;22715;52.182;21.206;2022-09-09T04:51:33;7.85;;;4.15;;
36745;SDS011;22715;52.182;21.206;2022-09-09T06:08:42;5.72;;;4.13;;
36745;SDS011;22715;52.182;21.206;2022-09-09T06:11:15;6.93;;;4.43;;
36745;SDS011;22715;52.182;21.206;2022-09-09T06:13:41;5.47;;;4.45;;
36745;SDS011;22715;52.182;21.206;2022-09-09T06:16:13;6.82;;;4.47;;
36745;SDS011;22715;52.182;21.206;2022-09-09T06:18:39;5.90;;;4.72;;
36745;SDS011;22715;52.182;21.206;2022-09-09T06:21:05;6.90;;;5.60;;
36745;SDS011;22715;52.182;21.206;2022-09-09T06:23:31;5.00;;;4.50;;
36745;SDS011;22715;52.182;21.206;2022-09-09T06:26:01;10.90;;;5.65;;
36745;SDS011;22715;52.182;21.206;2022-09-09T06:28:35;5.93;;;4.97;;
36745;SDS011;22715;52.182;21.206;2022-09-09T06:31:02;7.88;;;4.25;;
36745;SDS011;22715;52.182;21.206;2022-09-09T06:33:39;5.85;;;5.05;;
36745;SDS011;22715;52.182;21.206;2022-09-09T06:36:07;6.55;;;5.30;;
36745;SDS011;22715;52.182;21.206;2022-09-09T06:41:24;6.97;;;4.80;;
36745;SDS011;22715;52.182;21.206;2022-09-09T06:44:04;6.55;;;5.55;;
36745;SDS011;22715;52.182;21.206;2022-09-09T06:46:36;6.72;;;5.32;;
36745;SDS011;22715;52.182;21.206;2022-09-09T06:49:02;7.85;;;6.32;;
36745;SDS011;22715;52.182;21.206;2022-09-09T06:54:08;7.97;;;5.25;;
36745;SDS011;22715;52.182;21.206;2022-09-09T06:59:12;8.98;;;5.80;;
36745;SDS011;22715;52.182;21.206;2022-09-09T08:13:20;7.80;;;6.35;;
36745;SDS011;22715;52.182;21.206;2022-09-09T08:18:40;8.50;;;6.85;;
36745;SDS011;22715;52.182;21.206;2022-09-09T08:24:02;12.63;;;7.43;;
36745;SDS011;22715;52.182;21.206;2022-09-09T08:26:34;10.52;;;7.70;;
36745;SDS011;22715;52.182;21.206;2022-09-09T08:29:00;9.00;;;7.80;;
36745;SDS011;22715;52.182;21.206;2022-09-09T08:34:02;11.65;;;7.45;;
36745;SDS011;22715;52.182;21.206;2022-09-09T08:36:34;9.18;;;7.75;;
36745;SDS011;22715;52.182;21.206;2022-09-09T08:39:06;9.75;;;6.55;;
36745;SDS011;22715;52.182;21.206;2022-09-09T09:01:13;12.68;;;8.20;;
36745;SDS011;22715;52.182;21.206;2022-09-09T09:06:42;10.35;;;6.95;;
36745;SDS011;22715;52.182;21.206;2022-09-09T09:09:24;12.65;;;8.55;;
36745;SDS011;22715;52.182;21.206;2022-09-09T09:11:54;13.25;;;8.63;;
36745;SDS011;22715;52.182;21.206;2022-09-09T09:14:32;9.93;;;8.15;;
36745;SDS011;22715;52.182;21.206;2022-09-09T09:17:35;13.43;;;8.70;;
36745;SDS011;22715;52.182;21.206;2022-09-09T09:20:02;18.33;;;9.60;;
36745;SDS011;22715;52.182;21.206;2022-09-09T09:22:33;12.88;;;9.73;;
36745;SDS011;22715;52.182;21.206;2022-09-09T09:28:18;15.77;;;10.10;;
36745;SDS011;22715;52.182;21.206;2022-09-09T09:31:03;18.63;;;9.90;;
36745;SDS011;22715;52.182;21.206;2022-09-09T10:56:29;14.88;;;11.48;;
36745;SDS011;22715;52.182;21.206;2022-09-09T10:59:03;18.67;;;13.68;;
36745;SDS011;22715;52.182;21.206;2022-09-09T11:01:31;20.08;;;13.48;;
36745;SDS011;22715;52.182;21.206;2022-09-09T11:04:01;19.63;;;13.23;;
36745;SDS011;22715;52.182;21.206;2022-09-09T11:06:29;20.10;;;14.65;;
36745;SDS011;22715;52.182;21.206;2022-09-09T11:08:59;25.83;;;12.88;;
36745;SDS011;22715;52.182;21.206;2022-09-09T11:11:38;20.42;;;12.32;;
36745;SDS011;22715;52.182;21.206;2022-09-09T11:17:10;22.90;;;14.77;;
36745;SDS011;22715;52.182;21.206;2022-09-09T11:19:49;22.08;;;15.63;;
36745;SDS011;22715;52.182;21.206;2022-09-09T11:24:51;21.10;;;14.27;;
36745;SDS011;22715;52.182;21.206;2022-09-09T11:32:46;19.85;;;14.65;;
36745;SDS011;22715;52.182;21.206;2022-09-09T11:40:43;23.98;;;14.00;;
36745;SDS011;22715;52.182;21.206;2022-09-09T11:43:12;24.63;;;15.40;;
36745;SDS011;22715;52.182;21.206;2022-09-09T11:45:41;26.60;;;15.57;;
36745;SDS011;22715;52.182;21.206;2022-09-09T11:48:29;25.00;;;14.57;;
36745;SDS011;22715;52.182;21.206;2022-09-09T11:51:01;21.85;;;14.45;;
36745;SDS011;22715;52.182;21.206;2022-09-09T11:53:28;26.00;;;15.27;;
36745;SDS011;22715;52.182;21.206;2022-09-09T11:56:03;21.65;;;14.15;;
36745;SDS011;22715;52.182;21.206;2022-09-09T11:58:31;20.13;;;15.05;;
36745;SDS011;22715;52.182;21.206;2022-09-09T12:00:58;24.20;;;14.35;;
36745;SDS011;22715;52.182;21.206;2022-09-09T12:05:58;21.35;;;15.73;;
36745;SDS011;22715;52.182;21.206;2022-09-09T12:08:27;21.55;;;15.88;;
36745;SDS011;22715;52.182;21.206;2022-09-09T12:10:54;22.48;;;14.88;;
36745;SDS011;22715;52.182;21.206;2022-09-09T12:13:21;23.55;;;15.30;;
36745;SDS011;22715;52.182;21.206;2022-09-09T12:15:54;19.10;;;13.82;;
36745;SDS011;22715;52.182;21.206;2022-09-09T12:18:41;23.55;;;15.43;;
36745;SDS011;22715;52.182;21.206;2022-09-09T12:21:08;22.13;;;15.00;;
36745;SDS011;22715;52.182;21.206;2022-09-09T12:23:47;17.85;;;14.38;;
36745;SDS011;22715;52.182;21.206;2022-09-09T12:29:08;22.05;;;15.38;;
36745;SDS011;22715;52.182;21.206;2022-09-09T12:31:55;19.13;;;14.27;;
36745;SDS011;22715;52.182;21.206;2022-09-09T12:34:40;20.65;;;13.50;;
36745;SDS011;22715;52.182;21.206;2022-09-09T12:37:28;22.33;;;13.75;;
36745;SDS011;22715;52.182;21.206;2022-09-09T12:39:58;18.88;;;14.02;;
36745;SDS011;22715;52.182;21.206;2022-09-09T12:42:24;21.27;;;13.65;;
36745;SDS011;22715;52.182;21.206;2022-09-09T12:45:00;26.35;;;15.13;;
36745;SDS011;22715;52.182;21.206;2022-09-09T12:48:11;26.30;;;15.63;;
36745;SDS011;22715;52.182;21.206;2022-09-09T12:53:07;21.00;;;13.68;;
36745;SDS011;22715;52.182;21.206;2022-09-09T12:55:35;22.02;;;14.95;;
36745;SDS011;22715;52.182;21.206;2022-09-09T12:58:01;19.83;;;13.85;;
36745;SDS011;22715;52.182;21.206;2022-09-09T13:00:30;21.90;;;13.95;;
36745;SDS011;22715;52.182;21.206;2022-09-09T13:03:14;25.42;;;16.55;;
36745;SDS011;22715;52.182;21.206;2022-09-09T13:05:41;23.98;;;12.98;;
36745;SDS011;22715;52.182;21.206;2022-09-09T13:08:11;25.75;;;13.60;;
36745;SDS011;22715;52.182;21.206;2022-09-09T13:13:12;23.20;;;13.85;;
36745;SDS011;22715;52.182;21.206;2022-09-09T13:15:38;24.27;;;13.35;;
36745;SDS011;22715;52.182;21.206;2022-09-09T13:18:06;22.27;;;15.50;;
36745;SDS011;22715;52.182;21.206;2022-09-09T13:20:33;24.08;;;16.20;;
36745;SDS011;22715;52.182;21.206;2022-09-09T13:22:58;20.08;;;12.82;;
36745;SDS011;22715;52.182;21.206;2022-09-09T13:25:25;27.42;;;15.57;;
36745;SDS011;22715;52.182;21.206;2022-09-09T13:28:33;21.80;;;14.55;;
36745;SDS011;22715;52.182;21.206;2022-09-09T13:30:39;24.67;;;15.05;;
36745;SDS011;22715;52.182;21.206;2022-09-09T13:35:34;24.27;;;14.70;;
36745;SDS011;22715;52.182;21.206;2022-09-09T13:38:07;24.90;;;15.40;;
36745;SDS011;22715;52.182;21.206;2022-09-09T13:40:34;24.17;;;15.55;;
36745;SDS011;22715;52.182;21.206;2022-09-09T13:42:59;24.30;;;16.13;;
36745;SDS011;22715;52.182;21.206;2022-09-09T13:45:25;23.45;;;15.52;;
36745;SDS011;22715;52.182;21.206;2022-09-09T13:47:54;26.10;;;15.25;;
36745;SDS011;22715;52.182;21.206;2022-09-09T13:50:27;28.10;;;15.40;;
36745;SDS011;22715;52.182;21.206;2022-09-09T13:52:53;25.40;;;15.73;;
36745;SDS011;22715;52.182;21.206;2022-09-09T13:55:19;26.33;;;15.25;;
36745;SDS011;22715;52.182;21.206;2022-09-09T13:57:53;20.83;;;15.15;;
36745;SDS011;22715;52.182;21.206;2022-09-09T14:00:19;29.83;;;17.25;;
36745;SDS011;22715;52.182;21.206;2022-09-09T14:02:45;26.10;;;16.85;;
36745;SDS011;22715;52.182;21.206;2022-09-09T14:05:10;23.33;;;15.68;;
36745;SDS011;22715;52.182;21.206;2022-09-09T14:07:36;27.65;;;16.17;;
36745;SDS011;22715;52.182;21.206;2022-09-09T14:10:03;26.35;;;15.50;;
36745;SDS011;22715;52.182;21.206;2022-09-09T14:12:29;26.45;;;16.35;;
36745;SDS011;22715;52.182;21.206;2022-09-09T14:14:55;23.33;;;15.65;;
36745;SDS011;22715;52.182;21.206;2022-09-09T14:17:20;20.60;;;14.27;;
36745;SDS011;22715;52.182;21.206;2022-09-09T14:19:47;25.67;;;15.57;;
36745;SDS011;22715;52.182;21.206;2022-09-09T14:22:12;20.60;;;14.10;;
36745;SDS011;22715;52.182;21.206;2022-09-09T14:24:37;26.52;;;15.45;;
36745;SDS011;22715;52.182;21.206;2022-09-09T14:27:03;27.08;;;16.13;;
36745;SDS011;22715;52.182;21.206;2022-09-09T14:29:28;21.17;;;15.68;;
36745;SDS011;22715;52.182;21.206;2022-09-09T14:31:53;26.25;;;15.98;;
36745;SDS011;22715;52.182;21.206;2022-09-09T14:34:18;25.35;;;16.80;;
36745;SDS011;22715;52.182;21.206;2022-09-09T14:36:44;25.92;;;16.45;;
36745;SDS011;22715;52.182;21.206;2022-09-09T14:39:10;25.63;;;15.70;;
36745;SDS011;22715;52.182;21.206;2022-09-09T14:41:35;26.42;;;17.30;;
36745;SDS011;22715;52.182;21.206;2022-09-09T14:44:00;29.00;;;18.48;;
36745;SDS011;22715;52.182;21.206;2022-09-09T14:46:29;24.30;;;16.45;;
36745;SDS011;22715;52.182;21.206;2022-09-09T14:48:54;26.48;;;16.67;;
36745;SDS011;22715;52.182;21.206;2022-09-09T14:51:21;26.98;;;17.10;;
36745;SDS011;22715;52.182;21.206;2022-09-09T14:53:47;27.50;;;16.33;;
36745;SDS011;22715;52.182;21.206;2022-09-09T14:56:13;26.52;;;17.48;;
36745;SDS011;22715;52.182;21.206;2022-09-09T14:58:39;30.88;;;18.60;;
36745;SDS011;22715;52.182;21.206;2022-09-09T15:01:06;25.45;;;18.73;;
36745;SDS011;22715;52.182;21.206;2022-09-09T15:03:35;26.17;;;17.42;;
36745;SDS011;22715;52.182;21.206;2022-09-09T15:06:07;27.70;;;19.15;;
36745;SDS011;22715;52.182;21.206;2022-09-09T15:08:39;23.17;;;16.40;;
36745;SDS011;22715;52.182;21.206;2022-09-09T15:11:14;28.23;;;15.55;;
36745;SDS011;22715;52.182;21.206;2022-09-09T15:13:39;25.33;;;17.15;;
36745;SDS011;22715;52.182;21.206;2022-09-09T15:16:12;27.95;;;17.77;;
36745;SDS011;22715;52.182;21.206;2022-09-09T15:18:44;27.63;;;15.60;;
36745;SDS011;22715;52.182;21.206;2022-09-09T15:21:14;21.35;;;15.23;;
36745;SDS011;22715;52.182;21.206;2022-09-09T15:23:40;26.90;;;16.67;;
36745;SDS011;22715;52.182;21.206;2022-09-09T15:26:06;24.35;;;15.05;;
36745;SDS011;22715;52.182;21.206;2022-09-09T15:28:32;23.55;;;16.08;;
36745;SDS011;22715;52.182;21.206;2022-09-09T15:31:02;23.65;;;15.73;;
36745;SDS011;22715;52.182;21.206;2022-09-09T15:33:31;24.48;;;15.88;;
36745;SDS011;22715;52.182;21.206;2022-09-09T15:35:56;24.13;;;15.00;;
36745;SDS011;22715;52.182;21.206;2022-09-09T15:38:22;26.67;;;15.38;;
36745;SDS011;22715;52.182;21.206;2022-09-09T15:40:57;22.23;;;15.95;;
36745;SDS011;22715;52.182;21.206;2022-09-09T15:43:23;23.30;;;16.13;;
36745;SDS011;22715;52.182;21.206;2022-09-09T15:45:51;24.30;;;16.23;;
36745;SDS011;22715;52.182;21.206;2022-09-09T15:48:18;26.20;;;17.08;;
36745;SDS011;22715;52.182;21.206;2022-09-09T15:50:44;24.40;;;15.25;;
36745;SDS011;22715;52.182;21.206;2022-09-09T15:53:09;30.75;;;15.95;;
36745;SDS011;22715;52.182;21.206;2022-09-09T15:55:34;26.92;;;18.90;;
36745;SDS011;22715;52.182;21.206;2022-09-09T15:58:00;25.48;;;16.25;;
36745;SDS011;22715;52.182;21.206;2022-09-09T16:00:29;29.08;;;17.67;;
36745;SDS011;22715;52.182;21.206;2022-09-09T16:02:54;28.92;;;17.30;;
36745;SDS011;22715;52.182;21.206;2022-09-09T16:05:19;27.23;;;17.50;;
36745;SDS011;22715;52.182;21.206;2022-09-09T16:07:45;26.98;;;17.40;;
36745;SDS011;22715;52.182;21.206;2022-09-09T16:10:12;25.30;;;16.17;;
36745;SDS011;22715;52.182;21.206;2022-09-09T16:12:38;26.60;;;16.55;;
36745;SDS011;22715;52.182;21.206;2022-09-09T16:15:04;29.77;;;17.13;;
36745;SDS011;22715;52.182;21.206;2022-09-09T16:17:30;18.75;;;14.13;;
36745;SDS011;22715;52.182;21.206;2022-09-09T16:19:55;23.80;;;14.93;;
36745;SDS011;22715;52.182;21.206;2022-09-09T16:22:22;24.85;;;15.98;;
36745;SDS011;22715;52.182;21.206;2022-09-09T16:24:48;26.25;;;15.23;;
36745;SDS011;22715;52.182;21.206;2022-09-09T16:27:14;25.42;;;16.17;;
36745;SDS011;22715;52.182;21.206;2022-09-09T16:29:39;23.98;;;15.57;;
36745;SDS011;22715;52.182;21.206;2022-09-09T16:32:04;28.77;;;16.65;;
36745;SDS011;22715;52.182;21.206;2022-09-09T16:34:30;36.80;;;18.65;;
36745;SDS011;22715;52.182;21.206;2022-09-09T16:36:56;25.73;;;16.50;;
36745;SDS011;22715;52.182;21.206;2022-09-09T16:39:21;29.92;;;18.52;;
36745;SDS011;22715;52.182;21.206;2022-09-09T16:41:47;36.90;;;20.33;;
36745;SDS011;22715;52.182;21.206;2022-09-09T16:44:14;34.90;;;16.67;;
36745;SDS011;22715;52.182;21.206;2022-09-09T16:46:41;32.67;;;18.45;;
36745;SDS011;22715;52.182;21.206;2022-09-09T16:49:12;44.83;;;20.15;;
36745;SDS011;22715;52.182;21.206;2022-09-09T16:51:41;42.47;;;20.55;;
36745;SDS011;22715;52.182;21.206;2022-09-09T16:54:08;26.23;;;16.73;;
36745;SDS011;22715;52.182;21.206;2022-09-09T16:56:35;30.10;;;16.95;;
36745;SDS011;22715;52.182;21.206;2022-09-09T16:59:07;25.58;;;15.10;;
36745;SDS011;22715;52.182;21.206;2022-09-09T17:01:33;26.23;;;16.10;;
36745;SDS011;22715;52.182;21.206;2022-09-09T17:04:02;24.00;;;16.63;;
36745;SDS011;22715;52.182;21.206;2022-09-09T17:06:31;31.58;;;16.65;;
36745;SDS011;22715;52.182;21.206;2022-09-09T17:09:00;39.35;;;19.13;;
36745;SDS011;22715;52.182;21.206;2022-09-09T17:11:29;29.23;;;17.98;;
36745;SDS011;22715;52.182;21.206;2022-09-09T17:13:55;28.35;;;17.40;;
36745;SDS011;22715;52.182;21.206;2022-09-09T17:16:21;30.65;;;19.20;;
36745;SDS011;22715;52.182;21.206;2022-09-09T17:18:47;32.10;;;17.20;;
36745;SDS011;22715;52.182;21.206;2022-09-09T17:21:13;31.73;;;18.50;;
36745;SDS011;22715;52.182;21.206;2022-09-09T17:23:39;25.33;;;15.75;;
36745;SDS011;22715;52.182;21.206;2022-09-09T17:26:05;29.10;;;15.32;;
36745;SDS011;22715;52.182;21.206;2022-09-09T17:28:32;31.80;;;15.23;;
36745;SDS011;22715;52.182;21.206;2022-09-09T18:53:08;20.27;;;10.85;;
36745;SDS011;22715;52.182;21.206;2022-09-09T18:55:34;17.05;;;10.77;;
36745;SDS011;22715;52.182;21.206;2022-09-09T18:58:05;16.30;;;11.52;;
36745;SDS011;22715;52.182;21.206;2022-09-09T19:00:33;12.93;;;9.88;;
36745;SDS011;22715;52.182;21.206;2022-09-09T19:02:58;15.70;;;10.65;;
36745;SDS011;22715;52.182;21.206;2022-09-09T19:05:24;17.08;;;11.07;;
36745;SDS011;22715;52.182;21.206;2022-09-09T19:07:49;17.90;;;11.55;;
36745;SDS011;22715;52.182;21.206;2022-09-09T19:13:17;15.85;;;10.30;;
36745;SDS011;22715;52.182;21.206;2022-09-09T19:15:47;19.33;;;12.15;;
36745;SDS011;22715;52.182;21.206;2022-09-09T19:18:12;16.88;;;12.27;;
36745;SDS011;22715;52.182;21.206;2022-09-09T19:20:38;28.85;;;10.95;;
36745;SDS011;22715;52.182;21.206;2022-09-09T19:23:04;17.55;;;10.80;;
36745;SDS011;22715;52.182;21.206;2022-09-09T19:25:39;19.10;;;10.00;;
36745;SDS011;22715;52.182;21.206;2022-09-09T19:28:04;15.60;;;10.75;;
36745;SDS011;22715;52.182;21.206;2022-09-09T19:33:09;16.10;;;9.90;;
36745;SDS011;22715;52.182;21.206;2022-09-09T19:35:34;16.20;;;11.32;;
36745;SDS011;22715;52.182;21.206;2022-09-09T19:38:00;16.58;;;10.95;;
36745;SDS011;22715;52.182;21.206;2022-09-09T19:40:29;16.75;;;10.27;;
36745;SDS011;22715;52.182;21.206;2022-09-09T19:42:55;15.13;;;11.88;;
36745;SDS011;22715;52.182;21.206;2022-09-09T19:45:21;17.73;;;9.90;;
36745;SDS011;22715;52.182;21.206;2022-09-09T19:47:46;14.68;;;10.95;;
36745;SDS011;22715;52.182;21.206;2022-09-09T19:50:21;14.40;;;11.02;;
36745;SDS011;22715;52.182;21.206;2022-09-09T19:52:53;16.88;;;10.85;;
36745;SDS011;22715;52.182;21.206;2022-09-09T19:55:22;15.13;;;10.60;;
36745;SDS011;22715;52.182;21.206;2022-09-09T19:57:54;16.13;;;10.18;;
36745;SDS011;22715;52.182;21.206;2022-09-09T20:00:28;19.42;;;11.82;;
36745;SDS011;22715;52.182;21.206;2022-09-09T20:02:58;17.80;;;11.73;;
36745;SDS011;22715;52.182;21.206;2022-09-09T20:05:23;15.80;;;12.15;;
36745;SDS011;22715;52.182;21.206;2022-09-09T20:07:51;18.05;;;12.85;;
36745;SDS011;22715;52.182;21.206;2022-09-09T20:10:19;13.80;;;9.80;;
36745;SDS011;22715;52.182;21.206;2022-09-09T20:13:03;18.95;;;10.73;;
36745;SDS011;22715;52.182;21.206;2022-09-09T20:18:33;15.65;;;9.80;;
36745;SDS011;22715;52.182;21.206;2022-09-09T20:24:05;13.48;;;8.88;;
36745;SDS011;22715;52.182;21.206;2022-09-09T20:26:31;13.30;;;9.57;;
36745;SDS011;22715;52.182;21.206;2022-09-09T20:29:02;17.85;;;10.82;;
36745;SDS011;22715;52.182;21.206;2022-09-09T20:31:33;16.48;;;9.27;;
36745;SDS011;22715;52.182;21.206;2022-09-09T20:34:09;11.52;;;8.90;;
36745;SDS011;22715;52.182;21.206;2022-09-09T20:36:36;12.05;;;8.35;;
36745;SDS011;22715;52.182;21.206;2022-09-09T20:39:07;10.30;;;8.88;;
36745;SDS011;22715;52.182;21.206;2022-09-09T20:41:33;14.13;;;8.75;;
36745;SDS011;22715;52.182;21.206;2022-09-09T20:44:00;12.82;;;8.63;;
36745;SDS011;22715;52.182;21.206;2022-09-09T20:46:30;11.40;;;9.25;;
36745;SDS011;22715;52.182;21.206;2022-09-09T20:48:56;14.25;;;9.55;;
36745;SDS011;22715;52.182;21.206;2022-09-09T20:51:25;13.57;;;7.93;;
36745;SDS011;22715;52.182;21.206;2022-09-09T20:53:58;15.27;;;10.70;;
36745;SDS011;22715;52.182;21.206;2022-09-09T20:56:24;10.18;;;8.02;;
36745;SDS011;22715;52.182;21.206;2022-09-09T20:58:50;15.82;;;9.25;;
36745;SDS011;22715;52.182;21.206;2022-09-09T21:01:16;12.35;;;8.77;;
36745;SDS011;22715;52.182;21.206;2022-09-09T21:03:41;17.80;;;9.30;;
36745;SDS011;22715;52.182;21.206;2022-09-09T21:06:24;13.75;;;10.02;;
36745;SDS011;22715;52.182;21.206;2022-09-09T21:08:53;13.95;;;10.20;;
36745;SDS011;22715;52.182;21.206;2022-09-09T21:11:21;14.90;;;10.30;;
36745;SDS011;22715;52.182;21.206;2022-09-09T21:14:05;10.80;;;9.00;;
36745;SDS011;22715;52.182;21.206;2022-09-09T21:16:37;13.25;;;9.82;;
36745;SDS011;22715;52.182;21.206;2022-09-09T21:19:07;11.15;;;8.57;;
36745;SDS011;22715;52.182;21.206;2022-09-09T21:21:35;9.07;;;8.00;;
36745;SDS011;22715;52.182;21.206;2022-09-09T21:24:21;11.25;;;7.97;;
36745;SDS011;22715;52.182;21.206;2022-09-09T21:26:50;10.10;;;7.43;;
36745;SDS011;22715;52.182;21.206;2022-09-09T21:29:15;9.73;;;7.72;;
36745;SDS011;22715;52.182;21.206;2022-09-09T21:31:41;10.75;;;8.45;;
36745;SDS011;22715;52.182;21.206;2022-09-09T21:34:10;11.35;;;7.82;;
36745;SDS011;22715;52.182;21.206;2022-09-09T21:36:37;9.53;;;7.77;;
36745;SDS011;22715;52.182;21.206;2022-09-09T21:39:02;9.52;;;7.00;;
36745;SDS011;22715;52.182;21.206;2022-09-09T21:41:30;9.85;;;7.22;;
36745;SDS011;22715;52.182;21.206;2022-09-09T21:43:57;10.48;;;7.10;;
36745;SDS011;22715;52.182;21.206;2022-09-09T21:49:17;10.88;;;7.82;;
36745;SDS011;22715;52.182;21.206;2022-09-09T21:51:42;11.30;;;7.38;;
36745;SDS011;22715;52.182;21.206;2022-09-09T21:54:08;9.68;;;8.57;;
36745;SDS011;22715;52.182;21.206;2022-09-09T22:02:41;11.88;;;8.15;;
36745;SDS011;22715;52.182;21.206;2022-09-09T22:05:06;11.90;;;8.20;;
36745;SDS011;22715;52.182;21.206;2022-09-09T22:07:35;14.80;;;9.55;;
36745;SDS011;22715;52.182;21.206;2022-09-09T22:10:02;13.80;;;9.07;;
36745;SDS011;22715;52.182;21.206;2022-09-09T22:12:36;16.80;;;9.05;;
36745;SDS011;22715;52.182;21.206;2022-09-09T22:15:02;12.75;;;9.10;;
36745;SDS011;22715;52.182;21.206;2022-09-09T22:17:27;13.23;;;9.60;;
36745;SDS011;22715;52.182;21.206;2022-09-09T22:19:54;13.18;;;8.90;;
36745;SDS011;22715;52.182;21.206;2022-09-09T22:22:19;11.07;;;8.50;;
36745;SDS011;22715;52.182;21.206;2022-09-09T22:24:44;11.93;;;8.40;;
36745;SDS011;22715;52.182;21.206;2022-09-09T22:27:10;12.10;;;8.48;;
36745;SDS011;22715;52.182;21.206;2022-09-09T22:29:36;11.07;;;8.52;;
36745;SDS011;22715;52.182;21.206;2022-09-09T22:32:02;12.57;;;9.05;;
36745;SDS011;22715;52.182;21.206;2022-09-09T22:34:27;11.77;;;8.15;;
36745;SDS011;22715;52.182;21.206;2022-09-09T22:36:53;11.35;;;7.45;;
36745;SDS011;22715;52.182;21.206;2022-09-09T22:39:18;11.27;;;7.35;;
36745;SDS011;22715;52.182;21.206;2022-09-09T22:41:44;11.07;;;7.60;;
36745;SDS011;22715;52.182;21.206;2022-09-09T22:44:10;11.82;;;8.15;;
36745;SDS011;22715;52.182;21.206;2022-09-09T22:46:35;8.23;;;6.32;;
36745;SDS011;22715;52.182;21.206;2022-09-09T22:49:01;9.77;;;7.72;;
36745;SDS011;22715;52.182;21.206;2022-09-09T22:51:27;9.30;;;6.95;;
36745;SDS011;22715;52.182;21.206;2022-09-09T22:53:54;9.52;;;6.47;;
36745;SDS011;22715;52.182;21.206;2022-09-09T22:56:23;11.10;;;7.57;;
36745;SDS011;22715;52.182;21.206;2022-09-09T22:58:51;8.75;;;6.53;;
36745;SDS011;22715;52.182;21.206;2022-09-09T23:01:18;11.15;;;7.30;;
36745;SDS011;22715;52.182;21.206;2022-09-09T23:03:44;9.00;;;7.45;;
36745;SDS011;22715;52.182;21.206;2022-09-09T23:06:10;9.05;;;7.50;;
36745;SDS011;22715;52.182;21.206;2022-09-09T23:08:36;10.65;;;8.02;;
36745;SDS011;22715;52.182;21.206;2022-09-09T23:11:03;9.45;;;7.00;;
36745;SDS011;22715;52.182;21.206;2022-09-09T23:13:33;10.05;;;8.02;;
36745;SDS011;22715;52.182;21.206;2022-09-09T23:15:58;9.80;;;7.70;;
36745;SDS011;22715;52.182;21.206;2022-09-09T23:18:28;9.52;;;7.32;;
36745;SDS011;22715;52.182;21.206;2022-09-09T23:20:56;9.15;;;7.03;;
36745;SDS011;22715;52.182;21.206;2022-09-09T23:23:25;10.43;;;7.38;;
36745;SDS011;22715;52.182;21.206;2022-09-09T23:25:51;8.13;;;6.78;;
36745;SDS011;22715;52.182;21.206;2022-09-09T23:28:17;9.88;;;7.47;;
36745;SDS011;22715;52.182;21.206;2022-09-09T23:30:42;12.73;;;7.38;;
36745;SDS011;22715;52.182;21.206;2022-09-09T23:33:13;12.48;;;6.78;;
36745;SDS011;22715;52.182;21.206;2022-09-09T23:38:38;11.13;;;7.13;;
36745;SDS011;22715;52.182;21.206;2022-09-09T23:41:08;8.95;;;6.45;;
36745;SDS011;22715;52.182;21.206;2022-09-09T23:46:31;9.30;;;6.90;;
36745;SDS011;22715;52.182;21.206;2022-09-09T23:48:57;8.82;;;6.50;;
36745;SDS011;22715;52.182;21.206;2022-09-09T23:51:24;9.40;;;7.03;;
36745;SDS011;22715;52.182;21.206;2022-09-09T23:53:52;7.45;;;6.00;;
36745;SDS011;22715;52.182;21.206;2022-09-09T23:56:22;9.20;;;7.43;;
36745;SDS011;22715;52.182;21.206;2022-09-09T23:58:48;9.00;;;7.43;;
